Time;durP1;ratioP1;P1;durP2;ratioP2;P2;SDS_P1;SDS_P2;PMS_P1;PMS_P2;Temp;Humidity;BMP_temperature;BMP_pressure;BME280_temperature;BME280_humidity;BME280_pressure;Samples;Min_cycle;Max_cycle;Signal;HPM_P1;HPM_P2
2022/12/28 00:02:20;;;;;;;11.57;4.90;;;;;;;;;;5031674;28;20041;-66
2022/12/28 00:04:46;;;;;;;10.05;4.97;;;;;;;;;;5030229;28;20136;-66
2022/12/28 00:07:12;;;;;;;10.05;4.85;;;;;;;;;;5031307;28;20045;-66
2022/12/28 00:09:38;;;;;;;9.80;4.63;;;;;;;;;;5031590;28;20038;-66
2022/12/28 00:12:04;;;;;;;9.70;4.53;;;;;;;;;;5051009;28;20526;-66
2022/12/28 00:14:31;;;;;;;12.18;4.78;;;;;;;;;;5051120;28;20029;-66
2022/12/28 00:16:57;;;;;;;12.57;5.00;;;;;;;;;;5051187;28;20063;-66
2022/12/28 00:19:23;;;;;;;13.02;4.95;;;;;;;;;;5051118;28;20065;-66
2022/12/28 00:21:49;;;;;;;11.70;5.18;;;;;;;;;;5049258;28;20057;-66
2022/12/28 00:24:19;;;;;;;14.63;4.95;;;;;;;;;;5050834;28;20048;-66
2022/12/28 00:26:45;;;;;;;8.38;4.60;;;;;;;;;;5036852;28;20041;-66
2022/12/28 00:29:11;;;;;;;8.98;5.20;;;;;;;;;;5030861;28;20041;-66
2022/12/28 00:31:37;;;;;;;11.93;5.22;;;;;;;;;;5031076;28;20392;-66
2022/12/28 00:34:03;;;;;;;14.65;5.55;;;;;;;;;;5029651;28;20091;-66
2022/12/28 00:36:30;;;;;;;10.38;5.85;;;;;;;;;;5030676;28;20064;-67
2022/12/28 00:38:56;;;;;;;14.73;5.32;;;;;;;;;;5031037;28;20052;-66
2022/12/28 00:41:22;;;;;;;9.82;5.20;;;;;;;;;;5029897;28;20379;-66
2022/12/28 00:43:48;;;;;;;12.88;5.55;;;;;;;;;;5030540;28;20087;-66
2022/12/28 00:46:16;;;;;;;12.23;5.30;;;;;;;;;;5030977;28;20454;-66
2022/12/28 00:48:42;;;;;;;12.52;5.28;;;;;;;;;;5029678;28;20037;-66
2022/12/28 00:51:17;;;;;;;14.93;6.20;;;;;;;;;;5029146;28;20397;-66
2022/12/28 00:53:43;;;;;;;12.73;6.63;;;;;;;;;;5030719;28;20045;-66
2022/12/28 00:56:11;;;;;;;10.23;5.20;;;;;;;;;;5029551;28;20125;-66
2022/12/28 00:58:38;;;;;;;15.23;4.95;;;;;;;;;;5028865;28;20488;-66
2022/12/28 01:01:04;;;;;;;13.00;5.30;;;;;;;;;;5030863;28;20411;-66
2022/12/28 01:03:30;;;;;;;15.60;5.10;;;;;;;;;;5030489;28;20049;-66
2022/12/28 01:05:56;;;;;;;13.05;5.10;;;;;;;;;;5030197;28;20041;-66
2022/12/28 01:08:22;;;;;;;12.15;6.05;;;;;;;;;;5030658;28;20136;-66
2022/12/28 01:10:48;;;;;;;15.77;5.72;;;;;;;;;;5039378;28;20498;-66
2022/12/28 01:13:14;;;;;;;9.00;4.93;;;;;;;;;;5049937;28;20041;-66
2022/12/28 01:15:40;;;;;;;11.50;4.75;;;;;;;;;;5050273;28;20695;-66
2022/12/28 01:18:06;;;;;;;12.35;5.40;;;;;;;;;;5050256;28;20052;-66
2022/12/28 01:20:32;;;;;;;11.82;5.63;;;;;;;;;;5048631;28;20099;-66
2022/12/28 01:22:58;;;;;;;10.35;5.32;;;;;;;;;;5048659;28;20041;-66
2022/12/28 01:25:24;;;;;;;11.50;5.75;;;;;;;;;;5029152;28;20041;-66
2022/12/28 01:27:50;;;;;;;10.15;5.63;;;;;;;;;;5030744;28;20057;-66
2022/12/28 01:30:16;;;;;;;15.32;5.78;;;;;;;;;;5030198;28;20153;-66
2022/12/28 01:32:43;;;;;;;11.05;5.88;;;;;;;;;;5030614;28;20042;-66
2022/12/28 01:35:09;;;;;;;16.40;6.15;;;;;;;;;;5030557;28;20044;-66
2022/12/28 01:37:35;;;;;;;12.88;5.78;;;;;;;;;;5030253;28;20121;-66
2022/12/28 01:40:02;;;;;;;8.98;5.78;;;;;;;;;;5030530;28;20670;-66
2022/12/28 01:42:28;;;;;;;8.35;5.60;;;;;;;;;;5029320;28;20053;-66
2022/12/28 01:44:54;;;;;;;12.40;5.78;;;;;;;;;;5028778;28;20056;-66
2022/12/28 01:47:20;;;;;;;13.27;5.80;;;;;;;;;;5032086;28;20045;-66
2022/12/28 01:49:51;;;;;;;8.82;6.20;;;;;;;;;;5034477;28;20439;-66
2022/12/28 01:52:27;;;;;;;17.30;6.45;;;;;;;;;;5034087;28;20042;-66
2022/12/28 01:54:56;;;;;;;13.95;5.93;;;;;;;;;;5034434;28;20045;-66
2022/12/28 01:57:24;;;;;;;11.10;5.55;;;;;;;;;;5034661;28;20084;-66
2022/12/28 01:59:52;;;;;;;11.25;5.38;;;;;;;;;;5033053;28;20041;-66
2022/12/28 02:02:18;;;;;;;12.30;5.57;;;;;;;;;;5033996;28;20045;-67
2022/12/28 02:04:46;;;;;;;10.13;6.00;;;;;;;;;;5034983;28;20049;-66
2022/12/28 02:07:13;;;;;;;12.13;5.88;;;;;;;;;;5034375;28;20349;-66
2022/12/28 02:09:40;;;;;;;12.23;6.10;;;;;;;;;;5034322;28;20041;-66
2022/12/28 02:12:07;;;;;;;17.88;6.05;;;;;;;;;;5035607;28;20214;-66
2022/12/28 02:14:34;;;;;;;13.90;6.45;;;;;;;;;;5053539;28;20606;-66
2022/12/28 02:17:00;;;;;;;10.60;6.25;;;;;;;;;;5053842;28;20120;-66
2022/12/28 02:19:36;;;;;;;12.60;6.45;;;;;;;;;;5053599;28;20056;-66
2022/12/28 02:22:05;;;;;;;11.88;6.40;;;;;;;;;;5053085;28;20048;-66
2022/12/28 02:24:49;;;;;;;15.05;5.97;;;;;;;;;;5052590;28;20041;-66
2022/12/28 02:27:20;;;;;;;11.13;6.25;;;;;;;;;;5034340;28;20390;-66
2022/12/28 02:30:06;;;;;;;16.35;6.85;;;;;;;;;;5032135;28;20056;-66
2022/12/28 02:32:52;;;;;;;13.38;7.03;;;;;;;;;;5032746;28;20376;-66
2022/12/28 02:35:29;;;;;;;12.15;6.50;;;;;;;;;;5033094;28;20083;-66
2022/12/28 02:37:58;;;;;;;16.65;6.82;;;;;;;;;;5015867;28;20040;-66
2022/12/28 02:40:27;;;;;;;16.02;7.55;;;;;;;;;;5032282;28;20094;-66
2022/12/28 02:42:54;;;;;;;11.02;6.90;;;;;;;;;;5033044;28;20041;-66
2022/12/28 02:51:07;;;;;;;12.63;6.70;;;;;;;;;;5031847;28;20044;-66
2022/12/28 02:53:57;;;;;;;16.33;8.07;;;;;;;;;;5033554;28;20085;-66
2022/12/28 02:56:43;;;;;;;17.48;7.43;;;;;;;;;;5033790;28;20037;-66
2022/12/28 02:59:17;;;;;;;11.70;7.30;;;;;;;;;;5031681;28;20052;-66
2022/12/28 03:01:52;;;;;;;14.00;7.30;;;;;;;;;;5032935;28;20057;-66
2022/12/28 03:04:25;;;;;;;12.82;7.90;;;;;;;;;;5032875;28;20060;-66
2022/12/28 03:10:01;;;;;;;13.43;7.18;;;;;;;;;;5034677;28;20376;-66
2022/12/28 03:12:29;;;;;;;16.65;7.50;;;;;;;;;;5052355;28;20037;-66
2022/12/28 03:15:07;;;;;;;14.45;6.93;;;;;;;;;;5051580;28;20091;-66
2022/12/28 03:31:28;;;;;;;15.07;7.57;;;;;;;;;;5031261;28;20064;-66
2022/12/28 03:34:05;;;;;;;18.50;8.57;;;;;;;;;;5032130;28;20042;-66
2022/12/28 03:36:37;;;;;;;14.30;8.10;;;;;;;;;;5032143;28;20087;-66
2022/12/28 03:39:21;;;;;;;14.35;8.10;;;;;;;;;;5032465;28;20246;-66
2022/12/28 03:44:36;;;;;;;12.02;7.47;;;;;;;;;;5031895;28;20045;-66
2022/12/28 03:47:07;;;;;;;9.73;6.88;;;;;;;;;;5031962;28;20128;-66
2022/12/28 03:49:33;;;;;;;13.75;6.90;;;;;;;;;;5031631;28;20049;-66
2022/12/28 03:52:00;;;;;;;15.65;7.43;;;;;;;;;;5031588;28;20037;-66
2022/12/28 03:54:26;;;;;;;13.65;7.38;;;;;;;;;;5032321;28;20091;-66
2022/12/28 03:56:52;;;;;;;13.02;7.15;;;;;;;;;;5032520;28;20365;-66
2022/12/28 03:59:18;;;;;;;11.38;6.47;;;;;;;;;;5015165;28;20091;-66
2022/12/28 04:01:44;;;;;;;13.60;7.50;;;;;;;;;;5032812;28;20071;-66
2022/12/28 04:04:11;;;;;;;14.93;7.05;;;;;;;;;;5032797;28;20064;-66
2022/12/28 04:06:37;;;;;;;10.65;6.78;;;;;;;;;;5034103;28;20156;-66
2022/12/28 04:09:04;;;;;;;13.00;7.07;;;;;;;;;;5033295;28;20060;-66
2022/12/28 04:11:30;;;;;;;8.35;6.18;;;;;;;;;;5047653;28;20037;-66
2022/12/28 04:13:56;;;;;;;10.30;6.60;;;;;;;;;;5052650;28;20049;-66
2022/12/28 04:16:22;;;;;;;9.93;6.85;;;;;;;;;;5052045;28;20543;-66
2022/12/28 04:18:48;;;;;;;15.25;7.50;;;;;;;;;;5051909;28;20121;-66
2022/12/28 04:21:15;;;;;;;8.90;6.45;;;;;;;;;;5052219;28;20045;-66
2022/12/28 04:23:41;;;;;;;12.38;7.32;;;;;;;;;;5050897;28;20053;-66
2022/12/28 04:26:08;;;;;;;12.65;6.72;;;;;;;;;;5043000;28;20401;-66
2022/12/28 04:28:34;;;;;;;10.43;7.18;;;;;;;;;;5032507;28;20041;-66
2022/12/28 04:31:01;;;;;;;12.07;7.28;;;;;;;;;;5032414;28;20389;-66
2022/12/28 04:33:27;;;;;;;12.95;6.95;;;;;;;;;;5032301;28;20092;-66
2022/12/28 04:35:54;;;;;;;10.43;7.15;;;;;;;;;;5032395;28;20037;-66
2022/12/28 04:38:20;;;;;;;10.02;6.70;;;;;;;;;;5030617;28;20045;-66
2022/12/28 04:40:46;;;;;;;8.70;6.30;;;;;;;;;;5031742;28;20060;-66
2022/12/28 04:43:12;;;;;;;10.13;6.70;;;;;;;;;;5031917;28;20037;-66
2022/12/28 04:45:38;;;;;;;14.07;6.85;;;;;;;;;;5031447;28;20399;-66
2022/12/28 04:48:04;;;;;;;11.20;6.60;;;;;;;;;;5029679;28;20077;-66
2022/12/28 04:50:30;;;;;;;11.85;6.93;;;;;;;;;;5031493;28;20041;-66
2022/12/28 04:52:58;;;;;;;11.50;6.93;;;;;;;;;;5031624;28;20041;-66
2022/12/28 04:55:25;;;;;;;9.45;5.88;;;;;;;;;;5031805;28;20415;-66
2022/12/28 04:57:50;;;;;;;10.80;6.88;;;;;;;;;;5031557;28;20500;-66
2022/12/28 05:00:17;;;;;;;9.35;6.40;;;;;;;;;;5030886;28;20091;-66
2022/12/28 05:02:43;;;;;;;7.57;5.47;;;;;;;;;;5031909;28;20046;-66
2022/12/28 05:05:09;;;;;;;11.70;6.90;;;;;;;;;;5031987;28;20055;-66
2022/12/28 05:07:35;;;;;;;9.55;6.85;;;;;;;;;;5030782;28;20446;-66
2022/12/28 05:10:01;;;;;;;10.60;6.82;;;;;;;;;;5032685;28;20049;-66
2022/12/28 05:12:27;;;;;;;11.13;6.97;;;;;;;;;;5052707;28;20069;-66
2022/12/28 05:14:53;;;;;;;9.82;6.85;;;;;;;;;;5052354;28;20076;-66
2022/12/28 05:17:19;;;;;;;10.93;7.85;;;;;;;;;;5049714;28;20141;-66
2022/12/28 05:19:45;;;;;;;10.48;7.80;;;;;;;;;;5051786;28;20057;-66
2022/12/28 05:22:11;;;;;;;9.52;7.50;;;;;;;;;;5053241;28;20090;-66
2022/12/28 05:24:38;;;;;;;11.48;8.57;;;;;;;;;;5054344;28;20053;-66
2022/12/28 05:27:05;;;;;;;12.73;7.80;;;;;;;;;;5039240;28;20065;-66
2022/12/28 05:29:31;;;;;;;11.45;7.20;;;;;;;;;;5036731;28;20076;-66
2022/12/28 05:31:57;;;;;;;13.70;8.65;;;;;;;;;;5036229;28;20454;-66
2022/12/28 05:34:23;;;;;;;12.75;9.05;;;;;;;;;;5036008;28;20092;-66
2022/12/28 05:36:49;;;;;;;15.63;9.02;;;;;;;;;;5035651;28;20042;-66
2022/12/28 05:39:15;;;;;;;13.13;9.18;;;;;;;;;;5033772;28;20045;-66
2022/12/28 05:41:41;;;;;;;14.85;9.23;;;;;;;;;;5034697;28;20037;-66
2022/12/28 05:44:07;;;;;;;13.38;9.40;;;;;;;;;;5033852;28;20073;-66
2022/12/28 05:46:34;;;;;;;14.82;10.10;;;;;;;;;;5035260;28;20148;-66
2022/12/28 05:49:00;;;;;;;17.83;10.30;;;;;;;;;;5035152;28;20050;-66
2022/12/28 05:51:28;;;;;;;17.15;10.55;;;;;;;;;;5035572;28;20080;-66
2022/12/28 05:53:54;;;;;;;16.45;11.10;;;;;;;;;;5035259;28;20128;-66
2022/12/28 05:56:22;;;;;;;18.42;11.18;;;;;;;;;;5033602;28;20499;-66
2022/12/28 05:58:54;;;;;;;15.65;10.15;;;;;;;;;;5034608;28;20102;-66
2022/12/28 06:01:21;;;;;;;15.70;11.82;;;;;;;;;;5034764;28;20037;-66
2022/12/28 06:03:48;;;;;;;17.85;11.43;;;;;;;;;;5027261;28;20242;-67
2022/12/28 06:06:15;;;;;;;16.25;11.13;;;;;;;;;;5033474;28;20195;-67
2022/12/28 06:08:42;;;;;;;18.45;11.85;;;;;;;;;;5026750;28;20049;-67
2022/12/28 06:11:11;;;;;;;17.13;11.38;;;;;;;;;;5030186;28;20116;-68
2022/12/28 06:13:37;;;;;;;18.85;11.75;;;;;;;;;;5013479;28;20065;-68
2022/12/28 06:16:07;;;;;;;17.83;11.93;;;;;;;;;;5023300;28;20041;-68
2022/12/28 06:18:34;;;;;;;17.40;11.55;;;;;;;;;;5031200;28;20050;-68
2022/12/28 06:21:07;;;;;;;18.17;11.77;;;;;;;;;;5028383;28;20428;-68
2022/12/28 06:23:33;;;;;;;17.38;11.48;;;;;;;;;;5017839;28;20041;-67
2022/12/28 06:26:00;;;;;;;18.15;12.10;;;;;;;;;;5031644;28;20041;-67
2022/12/28 06:28:26;;;;;;;17.65;12.13;;;;;;;;;;5032270;28;20049;-67
2022/12/28 06:30:52;;;;;;;17.13;12.20;;;;;;;;;;5032580;28;20123;-67
2022/12/28 06:33:18;;;;;;;18.45;12.02;;;;;;;;;;5030646;28;20044;-67
2022/12/28 06:35:44;;;;;;;17.25;11.75;;;;;;;;;;5032181;28;20048;-67
2022/12/28 06:38:10;;;;;;;17.20;11.10;;;;;;;;;;5032699;28;20488;-68
2022/12/28 06:40:36;;;;;;;17.55;11.60;;;;;;;;;;5018499;28;20112;-68
2022/12/28 06:43:02;;;;;;;17.70;12.15;;;;;;;;;;5013219;28;20053;-67
2022/12/28 06:45:28;;;;;;;19.40;12.07;;;;;;;;;;5013044;28;20038;-67
2022/12/28 06:47:54;;;;;;;17.90;11.20;;;;;;;;;;5013840;28;20093;-66
2022/12/28 06:50:20;;;;;;;18.60;10.88;;;;;;;;;;5013520;28;20038;-66
2022/12/28 06:52:46;;;;;;;17.40;11.57;;;;;;;;;;5028050;28;20049;-66
2022/12/28 06:55:13;;;;;;;16.63;11.57;;;;;;;;;;5029760;28;20145;-66
2022/12/28 06:57:39;;;;;;;16.48;11.30;;;;;;;;;;5013573;28;20044;-66
2022/12/28 07:00:05;;;;;;;15.63;11.02;;;;;;;;;;5022019;28;20076;-66
2022/12/28 07:02:31;;;;;;;16.00;10.55;;;;;;;;;;5032642;28;20559;-66
2022/12/28 07:04:57;;;;;;;13.95;9.82;;;;;;;;;;5015988;28;20117;-66
2022/12/28 07:07:23;;;;;;;18.20;12.32;;;;;;;;;;5012871;28;20084;-65
2022/12/28 07:09:49;;;;;;;17.63;12.05;;;;;;;;;;5021647;28;20048;-66
2022/12/28 07:12:15;;;;;;;18.58;12.45;;;;;;;;;;5032443;28;20037;-66
2022/12/28 07:14:41;;;;;;;19.45;13.18;;;;;;;;;;5032514;28;20117;-66
2022/12/28 07:17:07;;;;;;;19.17;12.40;;;;;;;;;;5032161;28;20041;-66
2022/12/28 07:19:33;;;;;;;18.45;11.98;;;;;;;;;;5032250;28;20164;-66
2022/12/28 07:21:59;;;;;;;22.20;13.20;;;;;;;;;;5031286;28;20077;-66
2022/12/28 07:24:25;;;;;;;18.35;12.57;;;;;;;;;;5021524;28;20500;-65
2022/12/28 07:26:52;;;;;;;19.75;13.32;;;;;;;;;;5026839;28;20159;-66
2022/12/28 07:29:18;;;;;;;17.95;12.98;;;;;;;;;;5031808;28;20056;-67
2022/12/28 07:31:44;;;;;;;21.35;13.80;;;;;;;;;;5031761;28;20057;-66
2022/12/28 07:34:10;;;;;;;24.65;14.52;;;;;;;;;;5031677;28;20045;-68
2022/12/28 07:36:36;;;;;;;20.10;13.70;;;;;;;;;;5025357;28;20168;-67
2022/12/28 07:39:02;;;;;;;18.83;13.68;;;;;;;;;;5040664;28;20037;-68
2022/12/28 07:41:29;;;;;;;18.45;13.02;;;;;;;;;;5013776;28;20129;-69
2022/12/28 07:43:55;;;;;;;22.33;13.18;;;;;;;;;;5010803;28;20064;-68
2022/12/28 07:46:26;;;;;;;18.95;13.00;;;;;;;;;;5010461;28;20041;-69
2022/12/28 07:48:52;;;;;;;20.33;12.82;;;;;;;;;;5025080;28;20038;-68
2022/12/28 07:51:18;;;;;;;23.63;14.20;;;;;;;;;;5030443;28;20444;-68
2022/12/28 07:53:45;;;;;;;19.42;12.68;;;;;;;;;;5017801;28;20108;-69
2022/12/28 07:56:11;;;;;;;20.00;14.30;;;;;;;;;;5010479;28;20046;-69
2022/12/28 07:58:38;;;;;;;23.90;14.10;;;;;;;;;;5010744;28;20050;-67
2022/12/28 08:01:05;;;;;;;22.65;14.40;;;;;;;;;;5024883;28;20052;-69
2022/12/28 08:03:31;;;;;;;22.33;14.55;;;;;;;;;;5031919;28;20573;-68
2022/12/28 08:06:02;;;;;;;21.75;14.13;;;;;;;;;;5016241;28;20054;-68
2022/12/28 08:08:28;;;;;;;24.63;13.70;;;;;;;;;;5022625;28;20041;-68
2022/12/28 08:10:54;;;;;;;19.35;12.82;;;;;;;;;;5042728;28;20048;-68
2022/12/28 08:13:20;;;;;;;17.02;10.98;;;;;;;;;;5000773;28;20121;-69
2022/12/28 08:15:55;;;;;;;18.48;12.68;;;;;;;;;;5003316;28;20038;-68
2022/12/28 08:18:21;;;;;;;18.13;12.75;;;;;;;;;;5029584;28;20083;-68
2022/12/28 08:20:47;;;;;;;18.58;12.43;;;;;;;;;;5027646;28;20409;-69
2022/12/28 08:23:13;;;;;;;16.85;12.57;;;;;;;;;;5028451;28;20514;-68
2022/12/28 08:25:39;;;;;;;16.15;11.73;;;;;;;;;;5028063;28;20040;-70
2022/12/28 08:28:05;;;;;;;16.73;11.13;;;;;;;;;;5028166;28;20120;-70
2022/12/28 08:30:31;;;;;;;14.68;10.60;;;;;;;;;;5016972;28;20050;-68
2022/12/28 08:32:57;;;;;;;13.93;9.93;;;;;;;;;;5016045;28;20041;-69
2022/12/28 08:35:23;;;;;;;15.00;10.30;;;;;;;;;;5028906;28;20128;-68
2022/12/28 08:37:50;;;;;;;17.02;10.20;;;;;;;;;;5029100;28;20041;-71
2022/12/28 08:40:16;;;;;;;13.02;8.65;;;;;;;;;;5029599;28;20090;-70
2022/12/28 08:42:42;;;;;;;14.40;10.00;;;;;;;;;;5029135;28;20171;-71
2022/12/28 08:45:08;;;;;;;14.40;10.05;;;;;;;;;;5022764;28;20045;-71
2022/12/28 08:47:34;;;;;;;14.18;10.00;;;;;;;;;;5029293;28;20052;-71
2022/12/28 08:50:00;;;;;;;15.55;9.70;;;;;;;;;;5016268;28;20435;-72
2022/12/28 08:52:26;;;;;;;15.65;10.45;;;;;;;;;;5024825;28;20034;-70
2022/12/28 08:54:52;;;;;;;16.23;10.50;;;;;;;;;;5028928;28;20041;-70
2022/12/28 08:57:18;;;;;;;14.98;10.60;;;;;;;;;;5030518;28;20114;-69
2022/12/28 08:59:44;;;;;;;16.80;10.88;;;;;;;;;;5028922;28;20049;-70
2022/12/28 09:02:13;;;;;;;13.02;8.98;;;;;;;;;;5025121;28;20041;-70
2022/12/28 09:04:40;;;;;;;16.23;10.30;;;;;;;;;;5028960;28;20049;-70
2022/12/28 09:07:06;;;;;;;13.57;9.02;;;;;;;;;;5025540;28;20041;-70
2022/12/28 09:09:33;;;;;;;12.18;8.80;;;;;;;;;;5027781;28;20423;-70
2022/12/28 09:11:59;;;;;;;14.48;9.70;;;;;;;;;;5028585;28;20152;-70
2022/12/28 09:14:25;;;;;;;14.00;8.75;;;;;;;;;;5012776;28;20128;-69
2022/12/28 09:16:54;;;;;;;14.75;7.85;;;;;;;;;;5011904;28;20049;-69
2022/12/28 09:19:20;;;;;;;13.07;8.63;;;;;;;;;;5029853;28;20065;-69
2022/12/28 09:21:47;;;;;;;12.25;8.50;;;;;;;;;;5029447;28;20049;-69
2022/12/28 09:24:14;;;;;;;14.85;8.45;;;;;;;;;;5025644;28;20045;-69
2022/12/28 09:26:40;;;;;;;11.90;8.65;;;;;;;;;;5027250;28;20478;-69
2022/12/28 09:29:07;;;;;;;10.95;7.25;;;;;;;;;;5015418;28;20042;-68
2022/12/28 09:31:35;;;;;;;11.40;8.48;;;;;;;;;;4992365;28;20038;-68
2022/12/28 09:34:06;;;;;;;11.20;7.68;;;;;;;;;;5027043;28;20037;-68
2022/12/28 09:36:32;;;;;;;10.80;8.10;;;;;;;;;;5024581;28;20789;-67
2022/12/28 09:38:59;;;;;;;14.13;9.00;;;;;;;;;;5028173;28;20049;-66
2022/12/28 09:41:34;;;;;;;14.90;8.25;;;;;;;;;;5014331;28;20534;-66
2022/12/28 09:44:14;;;;;;;13.30;8.68;;;;;;;;;;5010005;28;20081;-67
2022/12/28 09:46:42;;;;;;;12.13;8.30;;;;;;;;;;5024412;28;20049;-67
2022/12/28 09:49:13;;;;;;;12.15;8.00;;;;;;;;;;5015738;28;20053;-67
2022/12/28 09:51:42;;;;;;;10.73;8.13;;;;;;;;;;5020893;28;20124;-68
2022/12/28 09:54:08;;;;;;;11.07;7.70;;;;;;;;;;5028389;28;20038;-71
2022/12/28 09:56:39;;;;;;;14.07;8.60;;;;;;;;;;5022467;28;20104;-69
2022/12/28 09:59:06;;;;;;;10.88;8.20;;;;;;;;;;5009024;28;20050;-68
2022/12/28 10:01:36;;;;;;;14.45;9.23;;;;;;;;;;5023278;28;20045;-67
2022/12/28 10:04:02;;;;;;;12.13;8.48;;;;;;;;;;5029699;28;20045;-67
2022/12/28 10:06:31;;;;;;;13.20;9.70;;;;;;;;;;5025057;28;20038;-67
2022/12/28 10:08:59;;;;;;;11.60;8.80;;;;;;;;;;5014227;28;20117;-67
2022/12/28 10:11:28;;;;;;;12.75;8.48;;;;;;;;;;5012463;28;20407;-68
2022/12/28 10:13:55;;;;;;;13.02;9.18;;;;;;;;;;5029462;28;20057;-68
2022/12/28 10:16:22;;;;;;;10.75;7.65;;;;;;;;;;5032082;28;20100;-67
2022/12/28 10:18:49;;;;;;;13.00;9.25;;;;;;;;;;5032356;28;20060;-67
2022/12/28 10:21:19;;;;;;;13.23;9.43;;;;;;;;;;5021463;28;20050;-69
2022/12/28 10:23:46;;;;;;;11.25;8.18;;;;;;;;;;5012243;28;20366;-68
2022/12/28 10:26:16;;;;;;;12.95;9.50;;;;;;;;;;5030105;28;20065;-68
2022/12/28 10:28:57;;;;;;;13.30;8.50;;;;;;;;;;5026002;28;20041;-68
2022/12/28 10:31:34;;;;;;;14.45;9.52;;;;;;;;;;5014871;28;20042;-68
2022/12/28 10:34:01;;;;;;;11.77;8.85;;;;;;;;;;5011627;28;20500;-68
2022/12/28 10:36:32;;;;;;;14.45;9.70;;;;;;;;;;5014625;28;20053;-67
2022/12/28 10:38:58;;;;;;;13.32;8.73;;;;;;;;;;5036880;28;20060;-68
2022/12/28 10:41:32;;;;;;;12.07;9.20;;;;;;;;;;5030347;28;20049;-68
2022/12/28 10:43:58;;;;;;;10.60;8.82;;;;;;;;;;5030327;28;20060;-69
2022/12/28 10:46:24;;;;;;;13.38;8.60;;;;;;;;;;5029426;28;20045;-68
2022/12/28 10:48:55;;;;;;;12.07;8.63;;;;;;;;;;5033500;28;20072;-68
2022/12/28 10:51:26;;;;;;;15.80;9.05;;;;;;;;;;5029766;28;20404;-68
2022/12/28 10:53:54;;;;;;;12.43;8.48;;;;;;;;;;5008376;28;20128;-68
2022/12/28 10:56:20;;;;;;;11.10;7.82;;;;;;;;;;5024778;28;20034;-70
2022/12/28 10:58:47;;;;;;;11.43;7.05;;;;;;;;;;5028917;28;20046;-71
2022/12/28 11:01:13;;;;;;;9.85;6.38;;;;;;;;;;5012751;28;20092;-71
2022/12/28 11:03:40;;;;;;;10.15;6.85;;;;;;;;;;5035060;28;20519;-71
2022/12/28 11:06:08;;;;;;;10.18;6.22;;;;;;;;;;5027003;28;20519;-70
2022/12/28 11:08:35;;;;;;;11.90;6.53;;;;;;;;;;5023833;28;20500;-73
2022/12/28 11:11:01;;;;;;;9.35;6.75;;;;;;;;;;5023979;28;20075;-70
2022/12/28 11:13:27;;;;;;;7.93;5.82;;;;;;;;;;5023579;28;20041;-70
2022/12/28 11:15:53;;;;;;;8.63;6.20;;;;;;;;;;5023899;28;20042;-70
2022/12/28 11:18:20;;;;;;;7.53;5.80;;;;;;;;;;5027210;28;20124;-71
2022/12/28 11:20:50;;;;;;;8.05;5.90;;;;;;;;;;5030334;28;20091;-70
2022/12/28 11:23:21;;;;;;;6.88;5.13;;;;;;;;;;5024806;28;20045;-71
2022/12/28 11:25:47;;;;;;;6.97;5.43;;;;;;;;;;5023311;28;20064;-70
2022/12/28 11:28:15;;;;;;;9.27;6.45;;;;;;;;;;5029739;28;20045;-70
2022/12/28 11:30:44;;;;;;;8.63;5.75;;;;;;;;;;5027005;28;20392;-70
2022/12/28 11:33:29;;;;;;;5.57;4.40;;;;;;;;;;5027279;28;20071;-69
2022/12/28 11:35:56;;;;;;;7.53;5.25;;;;;;;;;;5028275;28;20045;-69
2022/12/28 11:38:41;;;;;;;8.10;5.88;;;;;;;;;;5025246;28;20432;-69
2022/12/28 11:41:31;;;;;;;7.85;5.60;;;;;;;;;;5029586;28;20060;-69
2022/12/28 11:44:03;;;;;;;6.07;5.03;;;;;;;;;;5023969;28;20049;-69
2022/12/28 11:46:29;;;;;;;7.90;5.18;;;;;;;;;;5012292;28;20048;-68
2022/12/28 11:49:14;;;;;;;6.32;4.90;;;;;;;;;;5024715;28;20041;-70
2022/12/28 11:51:40;;;;;;;6.60;4.95;;;;;;;;;;5034918;28;20041;-68
2022/12/28 11:54:24;;;;;;;6.68;5.15;;;;;;;;;;5019664;28;20037;-68
2022/12/28 11:56:50;;;;;;;6.53;4.50;;;;;;;;;;5026488;28;20037;-70
2022/12/28 11:59:25;;;;;;;7.40;4.95;;;;;;;;;;5023209;28;20084;-69
2022/12/28 12:02:01;;;;;;;7.10;5.47;;;;;;;;;;5025715;28;20037;-69
2022/12/28 12:04:29;;;;;;;6.68;5.38;;;;;;;;;;5028726;28;20044;-70
2022/12/28 12:07:00;;;;;;;6.63;4.82;;;;;;;;;;5029258;28;20045;-68
2022/12/28 12:09:37;;;;;;;6.97;5.50;;;;;;;;;;5025348;28;20175;-68
2022/12/28 12:12:15;;;;;;;9.57;5.28;;;;;;;;;;5024568;28;20038;-69
2022/12/28 12:14:47;;;;;;;6.63;5.00;;;;;;;;;;5019234;28;20048;-69
2022/12/28 12:17:20;;;;;;;6.97;4.65;;;;;;;;;;5024776;28;20046;-67
2022/12/28 12:19:48;;;;;;;8.20;5.85;;;;;;;;;;5026551;28;20060;-69
2022/12/28 12:22:17;;;;;;;8.82;5.57;;;;;;;;;;5011486;28;20053;-69
2022/12/28 12:24:53;;;;;;;7.95;6.20;;;;;;;;;;5027045;28;20049;-69
2022/12/28 12:27:31;;;;;;;8.38;5.68;;;;;;;;;;5026299;28;20048;-69
2022/12/28 12:30:01;;;;;;;7.38;5.47;;;;;;;;;;5024570;28;20072;-68
2022/12/28 12:32:38;;;;;;;9.02;5.85;;;;;;;;;;5027253;28;20051;-69
2022/12/28 12:35:06;;;;;;;6.95;5.70;;;;;;;;;;5027519;28;20133;-69
2022/12/28 12:37:44;;;;;;;7.68;5.57;;;;;;;;;;5030127;28;20073;-68
2022/12/28 12:40:23;;;;;;;6.10;5.20;;;;;;;;;;5021462;28;20635;-68
2022/12/28 12:43:05;;;;;;;8.80;5.47;;;;;;;;;;5026702;28;20038;-67
2022/12/28 12:45:36;;;;;;;6.37;4.60;;;;;;;;;;5019200;28;20427;-66
2022/12/28 12:48:21;;;;;;;6.80;4.78;;;;;;;;;;5021323;28;20297;-67
2022/12/28 12:51:04;;;;;;;7.43;4.28;;;;;;;;;;5020398;28;20395;-67
2022/12/28 12:53:30;;;;;;;7.75;4.53;;;;;;;;;;5021813;28;20053;-67
2022/12/28 12:55:58;;;;;;;4.93;3.88;;;;;;;;;;5027612;28;20057;-66
2022/12/28 12:58:48;;;;;;;5.65;4.18;;;;;;;;;;5030111;28;20044;-68
2022/12/28 13:01:23;;;;;;;5.00;3.83;;;;;;;;;;4995794;28;20399;-68
2022/12/28 13:03:50;;;;;;;4.78;3.75;;;;;;;;;;5024686;28;20072;-68
2022/12/28 13:06:17;;;;;;;4.80;3.85;;;;;;;;;;5025257;28;20041;-66
2022/12/28 13:08:49;;;;;;;6.68;3.97;;;;;;;;;;5025441;28;20096;-68
2022/12/28 13:11:15;;;;;;;;;;;;;;;;;;5025134;28;20099;-68
2022/12/28 13:13:43;;;;;;;4.95;3.40;;;;;;;;;;5020750;28;19918;-68
2022/12/28 13:16:19;;;;;;;5.85;3.78;;;;;;;;;;5019626;28;20052;-69
2022/12/28 13:19:03;;;;;;;5.13;3.60;;;;;;;;;;5025547;28;20091;-68
2022/12/28 13:21:38;;;;;;;4.53;2.95;;;;;;;;;;5024048;28;20602;-66
2022/12/28 13:24:16;;;;;;;5.72;2.70;;;;;;;;;;5024751;28;20041;-68
2022/12/28 13:26:42;;;;;;;5.22;3.22;;;;;;;;;;5023901;28;20120;-69
2022/12/28 13:29:09;;;;;;;4.28;2.85;;;;;;;;;;5027416;28;20160;-69
2022/12/28 13:31:39;;;;;;;4.13;3.38;;;;;;;;;;5025124;28;20042;-69
2022/12/28 13:34:16;;;;;;;4.53;3.22;;;;;;;;;;5006957;28;20092;-69
2022/12/28 13:36:55;;;;;;;4.50;3.10;;;;;;;;;;5017982;28;20034;-68
2022/12/28 13:39:22;;;;;;;4.18;3.03;;;;;;;;;;5025729;28;20168;-70
2022/12/28 13:41:48;;;;;;;4.57;3.10;;;;;;;;;;5022145;28;20571;-70
2022/12/28 13:44:17;;;;;;;4.55;3.47;;;;;;;;;;5030763;28;20080;-68
2022/12/28 13:46:45;;;;;;;6.25;3.63;;;;;;;;;;5031742;28;20073;-68
2022/12/28 13:49:12;;;;;;;5.68;3.33;;;;;;;;;;5028323;28;20724;-67
2022/12/28 13:51:38;;;;;;;5.20;3.60;;;;;;;;;;5041859;28;20053;-67
2022/12/28 13:54:06;;;;;;;4.22;3.38;;;;;;;;;;5014424;28;20037;-67
2022/12/28 13:56:33;;;;;;;4.40;2.78;;;;;;;;;;5035079;28;20503;-67
2022/12/28 13:59:04;;;;;;;4.10;2.90;;;;;;;;;;5023749;28;20120;-68
2022/12/28 14:01:33;;;;;;;5.55;3.33;;;;;;;;;;5026774;28;20076;-68
2022/12/28 14:04:05;;;;;;;6.13;3.20;;;;;;;;;;5017412;28;20089;-68
2022/12/28 14:06:31;;;;;;;3.95;3.00;;;;;;;;;;5028754;28;20373;-67
2022/12/28 14:08:58;;;;;;;6.57;3.75;;;;;;;;;;5031934;28;20033;-66
2022/12/28 14:11:24;;;;;;;5.75;3.78;;;;;;;;;;5035903;28;20503;-68
2022/12/28 14:13:50;;;;;;;6.40;3.53;;;;;;;;;;5031024;28;20037;-68
2022/12/28 14:16:17;;;;;;;9.10;3.70;;;;;;;;;;5030748;28;20048;-67
2022/12/28 14:18:44;;;;;;;10.00;4.05;;;;;;;;;;5029591;28;20041;-67
2022/12/28 14:21:10;;;;;;;6.18;3.85;;;;;;;;;;5027828;28;20053;-67
2022/12/28 14:23:38;;;;;;;6.30;4.18;;;;;;;;;;5024841;28;20451;-67
2022/12/28 14:26:05;;;;;;;5.63;4.55;;;;;;;;;;5024349;28;20131;-68
2022/12/28 14:28:41;;;;;;;8.35;4.50;;;;;;;;;;5022155;28;20037;-68
2022/12/28 14:31:09;;;;;;;8.57;4.90;;;;;;;;;;5029705;28;20184;-67
2022/12/28 14:33:48;;;;;;;10.27;4.90;;;;;;;;;;5028182;28;20041;-68
2022/12/28 14:36:19;;;;;;;10.65;4.53;;;;;;;;;;5030114;28;20077;-67
2022/12/28 14:38:47;;;;;;;9.13;4.88;;;;;;;;;;5034278;28;20068;-68
2022/12/28 14:41:17;;;;;;;8.98;5.65;;;;;;;;;;5027929;28;20041;-67
2022/12/28 14:43:44;;;;;;;14.50;5.25;;;;;;;;;;5026098;28;20053;-69
2022/12/28 14:46:14;;;;;;;8.57;5.00;;;;;;;;;;5009082;28;20046;-69
2022/12/28 14:48:41;;;;;;;10.23;5.20;;;;;;;;;;5018543;28;20053;-67
2022/12/28 14:51:16;;;;;;;10.07;5.32;;;;;;;;;;5026644;28;20431;-67
2022/12/28 14:53:43;;;;;;;12.38;5.32;;;;;;;;;;5006912;28;20044;-67
2022/12/28 14:56:11;;;;;;;10.15;6.00;;;;;;;;;;5023126;28;20108;-67
2022/12/28 14:58:42;;;;;;;10.57;5.40;;;;;;;;;;5011645;28;20053;-67
2022/12/28 15:01:09;;;;;;;13.18;7.38;;;;;;;;;;5026709;28;20033;-69
2022/12/28 15:03:49;;;;;;;9.80;6.10;;;;;;;;;;5025344;28;20043;-69
2022/12/28 15:06:15;;;;;;;19.65;6.10;;;;;;;;;;5028954;28;20049;-69